Strona główna
METAR-TAF:

METAR-TAF

Lotnisko :

Custer County Airport

Custer, Dakota Południowa, Stany Zjednoczone

Szerokość geograficzna: 43-43-59N, Długość geograficzna: 103-37-03W, wysokość: 1707 m

Aktualna obserwacja pogody

Raport powstał 21 minut temu, godzina 21:53 UTC
Wiatr 11 kt od zachodnio-południowy zachód w porywach dochodzący do 31 kt
Temperatura 15°C
Wilgotność 31%
Ciśnienie 1006 hPa
Widzialność: 16.1 km
Mało chmury na wysokości 8000 ft
Przerywane chmury na wysokości 10000 ft

METAR: KCUT 062153Z AUTO 24011G31KT 10SM FEW080 BKN100 15/M02 A2972 RMK AO2 PK WND 23031/2144 LTG DSNT N SLP027 T01501022

czas: 16:14 (22:14 UTC)


TAF: brakujący

Obserwacja i prognoza pogody dla ponad 4000 lotnisk (raport METAR i TAF).

Dostępne stacje oznaczono żółtymi i czerwonymi punktami na mapie.

Najedź kursorem aby zobaczyć nazwę stacji.

Kliknij aby zobaczyć obserwacje i prognozy pogody.

Aby zmienić mapę: kliknij na zielony przycisk z czarnym krzyżykiem, aby powiększyć; na zielony przycisk z myślnikiem, aby pomniejszyć; na zielone strzałki, aby przejść do map sąsiednich.


METAR-TAF: